createdAt,value
2022-08-16T00:20:57.137Z,7.90
2022-08-16T00:24:12.323Z,8.50
2022-08-16T00:48:31.213Z,8.50
2022-08-16T00:52:30.735Z,8.00
2022-08-16T00:56:58.627Z,7.60
2022-08-16T01:20:24.011Z,8.30
2022-08-16T01:24:53.210Z,8.10
2022-08-16T01:27:54.128Z,8.00
2022-08-16T01:31:15.791Z,8.10
2022-08-16T01:34:47.484Z,7.60
2022-08-16T01:38:48.824Z,7.80
2022-08-16T01:46:37.700Z,7.90
2022-08-16T01:50:43.609Z,7.60
2022-08-16T01:53:25.138Z,7.70
2022-08-16T01:57:24.610Z,7.70
2022-08-16T02:00:54.939Z,7.50
2022-08-16T02:19:00.910Z,7.90
2022-08-16T02:22:52.854Z,7.50
2022-08-16T02:26:49.760Z,7.90
2022-08-16T02:30:50.071Z,7.10
2022-08-16T02:34:45.891Z,7.20
2022-08-16T02:42:28.611Z,7.60
2022-08-16T02:46:10.777Z,6.90
2022-08-16T02:50:54.119Z,7.70
2022-08-16T02:54:17.006Z,6.90
2022-08-16T02:58:09.232Z,7.70
2022-08-16T03:02:02.658Z,7.60
2022-08-16T03:21:38.937Z,7.90
2022-08-16T03:25:40.962Z,6.50
2022-08-16T03:29:37.548Z,7.10
2022-08-16T03:33:29.807Z,7.10
2022-08-16T03:44:49.502Z,6.90
2022-08-16T03:48:04.492Z,6.70
2022-08-16T03:51:44.863Z,7.20
2022-08-16T03:55:45.210Z,6.90
2022-08-16T03:59:39.178Z,6.50
2022-08-16T04:03:29.098Z,6.20
2022-08-16T04:07:07.906Z,6.80
2022-08-16T04:10:53.511Z,6.80
2022-08-16T04:14:38.391Z,6.50
2022-08-16T04:37:21.197Z,6.40
2022-08-16T04:41:12.701Z,7.10
2022-08-16T04:44:54.591Z,6.90
2022-08-16T04:48:48.925Z,7.00
2022-08-16T04:52:42.791Z,6.30
2022-08-16T04:56:46.182Z,6.40
2022-08-16T05:16:04.542Z,6.50
2022-08-16T05:19:58.317Z,7.40
2022-08-16T05:23:58.492Z,7.30
2022-08-16T05:27:51.572Z,7.10
2022-08-16T05:50:33.975Z,5.50
2022-08-16T05:54:07.790Z,5.60
2022-08-16T05:57:52.496Z,5.70
2022-08-16T06:01:38.204Z,5.20
2022-08-16T06:05:11.756Z,5.60
2022-08-16T06:08:46.566Z,5.70
2022-08-16T06:12:02.463Z,6.30
2022-08-16T06:15:44.035Z,5.40
2022-08-16T06:54:41.895Z,6.50
2022-08-16T07:28:20.539Z,7.10
2022-08-16T07:30:52.267Z,6.80
2022-08-16T07:33:56.628Z,6.60
2022-08-16T07:36:30.798Z,6.70
2022-08-16T07:39:12.488Z,7.50
2022-08-16T07:41:44.802Z,6.90
2022-08-16T07:44:16.290Z,6.40
2022-08-16T07:47:08.423Z,6.40
2022-08-16T07:49:57.852Z,6.40
2022-08-16T07:52:29.616Z,6.70
2022-08-16T07:55:00.765Z,5.60
2022-08-16T07:57:44.267Z,5.10
2022-08-16T08:00:59.398Z,5.30
2022-08-16T08:03:35.964Z,6.10
2022-08-16T08:06:16.904Z,6.10
2022-08-16T08:08:52.550Z,6.20
2022-08-16T08:11:41.025Z,5.90
2022-08-16T08:14:34.537Z,5.70
2022-08-16T08:17:42.651Z,6.10
2022-08-16T08:20:26.395Z,6.40
2022-08-16T08:23:28.376Z,6.20
2022-08-16T08:26:09.903Z,6.10
2022-08-16T08:31:40.042Z,5.90
2022-08-16T08:34:15.252Z,6.90
2022-08-16T08:37:09.632Z,6.30
2022-08-16T08:39:55.359Z,6.30
2022-08-16T08:42:30.035Z,5.90
2022-08-16T08:45:29.788Z,5.90
2022-08-16T08:48:34.631Z,6.20
2022-08-16T08:51:19.248Z,5.70
2022-08-16T08:54:33.445Z,4.90
2022-08-16T08:57:11.147Z,5.00
2022-08-16T09:00:21.396Z,5.10
2022-08-16T09:03:04.295Z,4.80
2022-08-16T09:06:01.538Z,4.00
2022-08-16T09:08:47.494Z,4.60
2022-08-16T09:12:04.122Z,4.00
2022-08-16T09:14:51.006Z,4.00
2022-08-16T09:18:25.234Z,3.60
2022-08-16T09:21:00.800Z,3.80
2022-08-16T09:23:37.871Z,3.20
2022-08-16T09:26:45.399Z,3.40
2022-08-16T09:29:45.000Z,2.90
2022-08-16T09:32:32.853Z,2.80
2022-08-16T09:35:30.669Z,3.20
2022-08-16T09:38:31.191Z,3.00
2022-08-16T09:41:14.668Z,3.30
2022-08-16T09:45:09.424Z,2.70
2022-08-16T09:47:30.090Z,3.20
2022-08-16T09:50:36.840Z,2.60
2022-08-16T09:53:23.448Z,2.50
2022-08-16T09:56:26.408Z,2.60
2022-08-16T09:59:31.003Z,2.30
2022-08-16T10:02:26.982Z,2.20
2022-08-16T10:05:11.991Z,2.00
2022-08-16T10:07:45.402Z,2.60
2022-08-16T10:10:18.867Z,1.70
2022-08-16T10:13:16.882Z,2.00
2022-08-16T10:16:16.676Z,2.20
2022-08-16T10:19:35.886Z,2.40
2022-08-16T10:22:16.016Z,2.70
2022-08-16T10:25:02.737Z,2.70
2022-08-16T10:28:28.339Z,2.40
2022-08-16T10:31:14.651Z,2.50
2022-08-16T10:34:31.258Z,2.30
2022-08-16T10:37:08.863Z,2.50
2022-08-16T10:39:44.696Z,2.60
2022-08-16T10:43:02.129Z,2.40
2022-08-16T10:46:00.108Z,2.30
2022-08-16T10:49:34.145Z,2.30
2022-08-16T10:52:59.460Z,2.60
2022-08-16T10:55:40.856Z,2.60
2022-08-16T10:58:17.148Z,2.70
2022-08-16T11:00:48.537Z,2.50
2022-08-16T11:06:12.080Z,2.80
2022-08-16T11:08:47.214Z,2.60
2022-08-16T11:11:31.509Z,2.50
2022-08-16T11:14:10.588Z,2.70
2022-08-16T11:20:00.590Z,2.50
2022-08-16T11:22:41.951Z,2.50
2022-08-16T11:31:11.317Z,3.30
2022-08-16T11:33:59.129Z,3.30
2022-08-16T11:36:29.936Z,3.70
2022-08-16T11:39:00.744Z,4.20
2022-08-16T11:41:35.111Z,4.40
2022-08-16T11:44:07.388Z,4.60
2022-08-16T11:47:26.726Z,3.90
2022-08-16T11:49:55.538Z,5.30
2022-08-16T11:52:25.692Z,5.10
2022-08-16T11:55:00.038Z,4.70
2022-08-16T11:57:30.573Z,5.20
2022-08-16T12:00:33.628Z,4.80
2022-08-16T12:03:07.454Z,4.90
2022-08-16T12:05:39.621Z,5.30
2022-08-16T12:08:10.385Z,5.50
2022-08-16T12:10:45.568Z,5.20
2022-08-16T12:13:15.933Z,5.50
2022-08-16T12:15:46.373Z,4.90
2022-08-16T12:18:20.701Z,5.10
2022-08-16T12:20:50.883Z,5.30
2022-08-16T12:23:25.832Z,5.70
2022-08-16T12:25:58.582Z,5.90
2022-08-16T12:28:53.935Z,5.60
2022-08-16T12:31:24.661Z,5.40
2022-08-16T12:33:57.559Z,5.90
2022-08-16T12:36:30.175Z,5.60
2022-08-16T12:39:01.204Z,6.10
2022-08-16T12:41:34.734Z,5.90
2022-08-16T12:44:06.818Z,5.60
2022-08-16T12:46:36.160Z,5.60
2022-08-16T12:49:06.845Z,6.00
2022-08-16T12:51:58.599Z,5.40
2022-08-16T12:54:32.091Z,5.40
2022-08-16T12:57:03.902Z,5.00
2022-08-16T12:59:35.492Z,4.50
2022-08-16T13:02:12.347Z,5.10
2022-08-16T13:04:52.603Z,5.30
2022-08-16T13:07:27.268Z,5.00
2022-08-16T13:09:58.814Z,5.10
2022-08-16T13:12:28.893Z,4.80
2022-08-16T13:14:58.769Z,5.10
2022-08-16T13:17:29.788Z,5.80
2022-08-16T13:20:09.428Z,5.60
2022-08-16T13:22:47.094Z,5.10
2022-08-16T13:25:22.991Z,5.80
2022-08-16T13:28:01.731Z,5.20
2022-08-16T13:30:41.281Z,5.40
2022-08-16T13:33:17.489Z,5.40
2022-08-16T13:35:55.654Z,5.10
2022-08-16T13:38:37.061Z,5.10
2022-08-16T13:41:10.223Z,5.30
2022-08-16T13:43:40.440Z,5.20
2022-08-16T13:46:09.910Z,4.90
2022-08-16T13:48:44.490Z,4.90
2022-08-16T13:51:18.096Z,4.70
2022-08-16T13:54:03.786Z,5.40
2022-08-16T13:56:39.512Z,5.40
2022-08-16T13:59:16.587Z,4.40
2022-08-16T14:01:59.832Z,4.60
2022-08-16T14:04:37.912Z,4.20
2022-08-16T14:07:19.950Z,4.40
2022-08-16T14:09:55.224Z,4.60
2022-08-16T14:12:33.386Z,5.00
2022-08-16T14:15:05.452Z,4.30
2022-08-16T14:18:16.030Z,4.70
2022-08-16T14:20:26.378Z,4.00
2022-08-16T14:22:55.716Z,4.40
2022-08-16T14:25:26.824Z,4.20
2022-08-16T14:27:57.376Z,4.10
2022-08-16T14:30:27.425Z,3.80
2022-08-16T14:32:58.606Z,4.70
2022-08-16T14:35:48.315Z,4.30
2022-08-16T14:38:24.027Z,4.90
2022-08-16T14:40:56.345Z,4.10
2022-08-16T14:43:35.720Z,4.30
2022-08-16T14:46:07.600Z,4.50
2022-08-16T14:48:41.160Z,4.60
2022-08-16T14:51:20.846Z,4.60
2022-08-16T14:53:54.670Z,4.50
2022-08-16T14:56:38.758Z,5.10
2022-08-16T14:59:16.135Z,4.70
2022-08-16T15:01:59.295Z,4.80
2022-08-16T15:04:47.948Z,4.40
2022-08-16T15:07:22.153Z,4.70
2022-08-16T15:10:00.479Z,4.60
2022-08-16T15:12:36.577Z,4.70
2022-08-16T15:15:56.238Z,4.70
2022-08-16T15:18:39.567Z,4.70
2022-08-16T15:21:12.509Z,4.80
2022-08-16T15:23:42.677Z,4.80
2022-08-16T15:26:42.820Z,5.30
2022-08-16T15:29:15.496Z,4.30
2022-08-16T15:31:54.484Z,4.50
2022-08-16T15:35:04.909Z,4.90
2022-08-16T15:37:42.920Z,5.40
2022-08-16T15:40:32.321Z,4.90
2022-08-16T15:43:33.852Z,4.60
2022-08-16T15:46:53.983Z,4.80
2022-08-16T15:49:17.301Z,5.30
2022-08-16T15:51:47.076Z,4.70
2022-08-16T15:54:30.047Z,4.90
2022-08-16T15:57:10.939Z,4.70
2022-08-16T15:59:49.339Z,5.80
2022-08-16T16:02:29.265Z,5.10
2022-08-16T16:05:10.171Z,4.80
2022-08-16T16:07:40.794Z,4.70
2022-08-16T16:10:29.309Z,4.50
2022-08-16T16:13:05.509Z,4.80
2022-08-16T16:15:54.086Z,4.30
2022-08-16T16:18:26.495Z,5.10
2022-08-16T16:21:02.122Z,4.60
2022-08-16T16:23:53.857Z,4.70
2022-08-16T16:26:29.310Z,5.00
2022-08-16T16:29:07.843Z,4.60
2022-08-16T16:31:59.191Z,5.20
2022-08-16T16:34:32.358Z,4.70
2022-08-16T16:37:09.971Z,4.80
2022-08-16T16:39:44.893Z,4.60
2022-08-16T16:42:29.194Z,4.90
2022-08-16T16:45:02.172Z,4.90
2022-08-16T16:47:41.606Z,4.90
2022-08-16T16:50:16.579Z,5.20
2022-08-16T16:52:50.017Z,5.30
2022-08-16T16:55:26.478Z,5.00
2022-08-16T16:58:29.017Z,5.30
2022-08-16T17:01:08.177Z,5.40
2022-08-16T17:03:38.968Z,5.40
2022-08-16T17:06:10.545Z,5.50
2022-08-16T17:08:42.320Z,5.60
2022-08-16T17:11:14.426Z,6.10
2022-08-16T17:13:44.957Z,5.80
2022-08-16T17:16:18.784Z,5.30
2022-08-16T17:19:16.999Z,5.30
2022-08-16T17:21:49.369Z,5.60
2022-08-16T17:24:22.283Z,5.60
2022-08-16T17:27:04.106Z,6.00
2022-08-16T17:29:45.899Z,6.20
2022-08-16T17:32:46.502Z,5.80
2022-08-16T17:35:34.080Z,6.10
2022-08-16T17:38:08.534Z,5.90
2022-08-16T17:40:57.447Z,5.30
2022-08-16T17:43:43.817Z,5.70
2022-08-16T17:46:41.778Z,6.00
2022-08-16T17:49:08.052Z,5.90
2022-08-16T17:51:37.916Z,6.60
2022-08-16T17:54:08.999Z,6.50
2022-08-16T17:56:50.528Z,6.40
2022-08-16T17:59:23.352Z,6.70
2022-08-16T18:01:53.688Z,6.00
2022-08-16T18:04:43.610Z,6.00
2022-08-16T18:07:16.518Z,6.40
2022-08-16T18:09:46.505Z,6.20
2022-08-16T18:12:44.150Z,7.10
2022-08-16T18:15:17.088Z,7.00
2022-08-16T18:17:48.945Z,6.30
2022-08-16T18:20:43.526Z,6.50
2022-08-16T18:23:22.065Z,7.00
2022-08-16T18:25:59.924Z,6.20
2022-08-16T18:28:35.251Z,6.90
2022-08-16T18:31:10.925Z,7.20
2022-08-16T18:33:44.173Z,7.60
2022-08-16T18:36:20.230Z,6.90
2022-08-16T18:38:53.664Z,6.40
2022-08-16T18:41:25.848Z,7.10
2022-08-16T18:44:26.879Z,7.50
2022-08-16T18:46:50.991Z,7.30
2022-08-16T18:49:25.802Z,7.30
2022-08-16T18:52:02.885Z,7.80
2022-08-16T18:55:01.543Z,6.80
2022-08-16T18:57:39.342Z,5.90
2022-08-16T19:00:22.972Z,5.50
2022-08-16T19:03:05.983Z,5.90
2022-08-16T19:05:53.419Z,5.40
2022-08-16T19:09:10.783Z,4.80
2022-08-16T19:11:58.534Z,4.70
2022-08-16T19:15:14.052Z,6.10
2022-08-16T19:18:14.256Z,6.40
2022-08-16T19:21:14.558Z,6.10
2022-08-16T19:24:36.098Z,6.50
2022-08-16T19:27:50.989Z,5.90
2022-08-16T19:31:18.445Z,5.10
2022-08-16T19:34:18.159Z,4.70
2022-08-16T20:19:45.423Z,4.10
2022-08-16T20:22:53.876Z,4.40
2022-08-16T20:26:11.738Z,4.20
2022-08-16T20:29:09.544Z,4.70
2022-08-16T20:32:02.662Z,4.40
2022-08-16T20:34:50.986Z,4.30
2022-08-16T20:38:04.561Z,4.40
2022-08-16T20:40:59.665Z,4.50
2022-08-16T20:43:54.982Z,4.50
2022-08-16T20:47:01.723Z,4.90
2022-08-16T20:52:41.806Z,5.00
2022-08-16T20:55:45.928Z,4.60
2022-08-16T20:58:55.494Z,4.40
2022-08-16T21:02:05.908Z,4.20
2022-08-16T21:04:46.038Z,5.00
2022-08-16T21:07:25.847Z,4.90
2022-08-16T21:10:27.002Z,5.20
2022-08-16T21:13:31.111Z,4.50
2022-08-16T21:16:14.095Z,4.30
2022-08-16T21:18:47.171Z,4.60
2022-08-16T21:21:44.365Z,5.30
2022-08-16T21:24:40.106Z,5.40
2022-08-16T21:27:44.532Z,5.10
2022-08-16T21:30:56.585Z,5.20
2022-08-16T21:33:54.141Z,5.80
2022-08-16T21:36:50.072Z,6.20
2022-08-16T21:39:43.875Z,5.60
2022-08-16T21:42:36.769Z,5.80
2022-08-16T21:45:28.133Z,5.40
2022-08-16T21:48:33.957Z,6.10
2022-08-16T21:51:37.983Z,6.40
2022-08-16T21:54:32.423Z,5.20
2022-08-16T21:57:40.593Z,5.40
2022-08-16T22:01:08.289Z,5.40
2022-08-16T22:04:37.921Z,5.10
2022-08-16T22:07:18.318Z,5.30
2022-08-16T22:11:07.486Z,5.00
2022-08-16T22:14:10.597Z,5.10
2022-08-16T22:17:04.125Z,5.50
2022-08-16T22:20:24.640Z,5.70
2022-08-16T22:23:14.769Z,5.20
2022-08-16T22:26:36.779Z,4.70
2022-08-16T22:29:38.240Z,4.90
2022-08-16T22:32:49.747Z,4.90
2022-08-16T22:36:01.542Z,5.30
2022-08-16T22:38:57.533Z,5.30
2022-08-16T22:42:08.437Z,5.60
2022-08-16T22:45:14.467Z,4.80
2022-08-16T22:48:32.350Z,5.20
2022-08-16T22:51:24.669Z,5.60
2022-08-16T22:54:34.207Z,4.80
2022-08-16T22:57:57.238Z,6.00
2022-08-16T23:01:13.247Z,5.80
2022-08-16T23:07:32.436Z,4.90
2022-08-16T23:10:44.892Z,5.00
2022-08-16T23:14:16.727Z,5.50
2022-08-16T23:17:41.517Z,5.30
2022-08-16T23:21:04.476Z,5.50
2022-08-16T23:24:30.434Z,5.40
2022-08-16T23:28:05.423Z,6.40
2022-08-16T23:31:28.240Z,4.80
2022-08-16T23:35:11.537Z,5.80
2022-08-16T23:39:04.710Z,5.60
2022-08-16T23:42:52.545Z,5.70
2022-08-16T23:46:13.523Z,5.50
2022-08-16T23:49:57.197Z,5.00
2022-08-16T23:53:41.424Z,5.10
